sensor_id;sensor_type;location;lat;lon;timestamp;pressure;altitude;pressure_sealevel;temperature;humidity
9460;BME280;4768;42.664;23.240;2023-04-29T00:00:01;-9551.50;;;4.97;100.00
9460;BME280;4768;42.664;23.240;2023-04-29T00:02:29;-9547.84;;;4.84;100.00
9460;BME280;4768;42.664;23.240;2023-04-29T00:04:57;-9543.44;;;4.69;100.00
9460;BME280;4768;42.664;23.240;2023-04-29T00:07:23;-9543.31;;;4.68;100.00
9460;BME280;4768;42.664;23.240;2023-04-29T00:09:50;-9542.03;;;4.64;100.00
9460;BME280;4768;42.664;23.240;2023-04-29T00:12:17;-9540.47;;;4.58;100.00
9460;BME280;4768;42.664;23.240;2023-04-29T00:14:44;-9537.53;;;4.48;100.00
9460;BME280;4768;42.664;23.240;2023-04-29T00:17:10;-9537.38;;;4.47;100.00
9460;BME280;4768;42.664;23.240;2023-04-29T00:19:39;-9536.94;;;4.46;100.00
9460;BME280;4768;42.664;23.240;2023-04-29T00:22:06;-9537.38;;;4.47;100.00
9460;BME280;4768;42.664;23.240;2023-04-29T00:24:33;-9538.66;;;4.52;100.00
9460;BME280;4768;42.664;23.240;2023-04-29T00:27:00;-9540.91;;;4.60;100.00
9460;BME280;4768;42.664;23.240;2023-04-29T00:29:27;-9538.78;;;4.52;100.00
9460;BME280;4768;42.664;23.240;2023-04-29T00:31:54;-9539.78;;;4.56;100.00
9460;BME280;4768;42.664;23.240;2023-04-29T00:34:21;-9541.91;;;4.63;100.00
9460;BME280;4768;42.664;23.240;2023-04-29T00:36:49;-9539.63;;;4.55;100.00
9460;BME280;4768;42.664;23.240;2023-04-29T00:39:16;-9538.09;;;4.50;100.00
9460;BME280;4768;42.664;23.240;2023-04-29T00:41:43;-9539.06;;;4.53;100.00
9460;BME280;4768;42.664;23.240;2023-04-29T00:44:10;-9539.63;;;4.55;100.00
9460;BME280;4768;42.664;23.240;2023-04-29T00:46:36;-9536.94;;;4.46;100.00
9460;BME280;4768;42.664;23.240;2023-04-29T00:49:03;-9535.53;;;4.41;100.00
9460;BME280;4768;42.664;23.240;2023-04-29T00:51:30;-9534.25;;;4.36;100.00
9460;BME280;4768;42.664;23.240;2023-04-29T00:53:59;-9528.91;;;4.18;100.00
9460;BME280;4768;42.664;23.240;2023-04-29T00:56:26;-9528.34;;;4.16;100.00
9460;BME280;4768;42.664;23.240;2023-04-29T00:58:56;-9529.59;;;4.20;100.00
9460;BME280;4768;42.664;23.240;2023-04-29T01:01:24;-9529.47;;;4.20;100.00
9460;BME280;4768;42.664;23.240;2023-04-29T01:03:50;-9526.63;;;4.10;100.00
9460;BME280;4768;42.664;23.240;2023-04-29T01:06:28;-9524.09;;;4.01;100.00
9460;BME280;4768;42.664;23.240;2023-04-29T01:09:21;-9520.72;;;3.89;100.00
9460;BME280;4768;42.664;23.240;2023-04-29T01:12:03;-9520.00;;;3.86;100.00
9460;BME280;4768;42.664;23.240;2023-04-29T01:14:32;-9524.53;;;4.02;100.00
9460;BME280;4768;42.664;23.240;2023-04-29T01:17:05;-9527.63;;;4.13;100.00
9460;BME280;4768;42.664;23.240;2023-04-29T01:19:43;-9528.75;;;4.17;100.00
9460;BME280;4768;42.664;23.240;2023-04-29T01:22:11;-9529.88;;;4.21;100.00
9460;BME280;4768;42.664;23.240;2023-04-29T01:24:40;-9526.91;;;4.11;100.00
9460;BME280;4768;42.664;23.240;2023-04-29T01:27:13;-9525.38;;;4.05;100.00
9460;BME280;4768;42.664;23.240;2023-04-29T01:29:51;-9524.53;;;4.02;100.00
9460;BME280;4768;42.664;23.240;2023-04-29T01:32:27;-9523.38;;;3.98;100.00
9460;BME280;4768;42.664;23.240;2023-04-29T01:35:00;-9524.53;;;4.02;100.00
9460;BME280;4768;42.664;23.240;2023-04-29T01:37:35;-9523.94;;;4.00;100.00
9460;BME280;4768;42.664;23.240;2023-04-29T01:40:11;-9527.63;;;4.13;100.00
9460;BME280;4768;42.664;23.240;2023-04-29T01:42:44;-9526.34;;;4.09;100.00
9460;BME280;4768;42.664;23.240;2023-04-29T01:45:14;-9528.34;;;4.16;100.00
9460;BME280;4768;42.664;23.240;2023-04-29T01:47:41;-9527.06;;;4.11;100.00
9460;BME280;4768;42.664;23.240;2023-04-29T01:50:09;-9526.34;;;4.09;100.00
9460;BME280;4768;42.664;23.240;2023-04-29T01:52:36;-9521.28;;;3.91;100.00
9460;BME280;4768;42.664;23.240;2023-04-29T01:55:05;-9517.16;;;3.77;100.00
9460;BME280;4768;42.664;23.240;2023-04-29T01:57:33;-9516.59;;;3.75;100.00
9460;BME280;4768;42.664;23.240;2023-04-29T02:00:00;-9515.34;;;3.70;100.00
9460;BME280;4768;42.664;23.240;2023-04-29T02:02:26;-9509.84;;;3.51;100.00
9460;BME280;4768;42.664;23.240;2023-04-29T02:04:53;-9511.25;;;3.56;100.00
9460;BME280;4768;42.664;23.240;2023-04-29T02:07:20;-9517.31;;;3.77;100.00
9460;BME280;4768;42.664;23.240;2023-04-29T02:09:47;-9518.44;;;3.81;100.00
9460;BME280;4768;42.664;23.240;2023-04-29T02:12:14;-9514.91;;;3.69;100.00
9460;BME280;4768;42.664;23.240;2023-04-29T02:14:42;-9513.50;;;3.64;100.00
9460;BME280;4768;42.664;23.240;2023-04-29T02:17:09;-9508.41;;;3.46;100.00
9460;BME280;4768;42.664;23.240;2023-04-29T02:19:36;-9507.44;;;3.42;100.00
9460;BME280;4768;42.664;23.240;2023-04-29T02:22:02;-9507.72;;;3.43;100.00
9460;BME280;4768;42.664;23.240;2023-04-29T02:24:29;-9506.59;;;3.39;100.00
9460;BME280;4768;42.664;23.240;2023-04-29T02:26:56;-9506.03;;;3.37;100.00
9460;BME280;4768;42.664;23.240;2023-04-29T02:29:23;-9507.72;;;3.43;100.00
9460;BME280;4768;42.664;23.240;2023-04-29T02:31:52;-9509.53;;;3.50;100.00
9460;BME280;4768;42.664;23.240;2023-04-29T02:34:19;-9509.69;;;3.50;100.00
9460;BME280;4768;42.664;23.240;2023-04-29T02:36:46;-9510.69;;;3.54;100.00
9460;BME280;4768;42.664;23.240;2023-04-29T02:39:12;-9510.53;;;3.53;100.00
9460;BME280;4768;42.664;23.240;2023-04-29T02:41:39;-9511.94;;;3.58;100.00
9460;BME280;4768;42.664;23.240;2023-04-29T02:44:06;-9509.84;;;3.51;100.00
9460;BME280;4768;42.664;23.240;2023-04-29T02:46:33;-9507.72;;;3.43;100.00
9460;BME280;4768;42.664;23.240;2023-04-29T02:49:02;-9506.03;;;3.37;100.00
9460;BME280;4768;42.664;23.240;2023-04-29T02:51:29;-9506.16;;;3.38;100.00
9460;BME280;4768;42.664;23.240;2023-04-29T02:53:56;-9504.31;;;3.32;100.00
9460;BME280;4768;42.664;23.240;2023-04-29T02:56:22;-9504.31;;;3.32;100.00
9460;BME280;4768;42.664;23.240;2023-04-29T02:58:49;-9504.03;;;3.31;100.00
9460;BME280;4768;42.664;23.240;2023-04-29T03:01:16;-9501.91;;;3.23;100.00
9460;BME280;4768;42.664;23.240;2023-04-29T03:03:43;-9499.81;;;3.16;100.00
9460;BME280;4768;42.664;23.240;2023-04-29T03:06:11;-9500.09;;;3.17;100.00
9460;BME280;4768;42.664;23.240;2023-04-29T03:08:37;-9496.28;;;3.03;100.00
9460;BME280;4768;42.664;23.240;2023-04-29T03:11:04;-9492.47;;;2.90;100.00
9460;BME280;4768;42.664;23.240;2023-04-29T03:13:31;-9494.31;;;2.96;100.00
9460;BME280;4768;42.664;23.240;2023-04-29T03:15:57;-9497.25;;;3.07;100.00
9460;BME280;4768;42.664;23.240;2023-04-29T03:18:25;-9496.56;;;3.04;100.00
9460;BME280;4768;42.664;23.240;2023-04-29T03:20:51;-9496.13;;;3.03;100.00
9460;BME280;4768;42.664;23.240;2023-04-29T03:23:19;-9494.31;;;2.96;100.00
9460;BME280;4768;42.664;23.240;2023-04-29T03:25:46;-9491.34;;;2.86;100.00
9460;BME280;4768;42.664;23.240;2023-04-29T03:28:13;-9492.03;;;2.88;100.00
9460;BME280;4768;42.664;23.240;2023-04-29T03:30:40;-9494.31;;;2.96;100.00
9460;BME280;4768;42.664;23.240;2023-04-29T03:33:07;-9496.28;;;3.03;100.00
9460;BME280;4768;42.664;23.240;2023-04-29T03:35:33;-9490.34;;;2.83;100.00
9460;BME280;4768;42.664;23.240;2023-04-29T03:38:00;-9496.41;;;3.04;100.00
9460;BME280;4768;42.664;23.240;2023-04-29T03:40:28;-9498.81;;;3.12;100.00
9460;BME280;4768;42.664;23.240;2023-04-29T03:42:55;-9501.78;;;3.23;100.00
9460;BME280;4768;42.664;23.240;2023-04-29T03:45:22;-9503.75;;;3.30;100.00
9460;BME280;4768;42.664;23.240;2023-04-29T03:47:48;-9502.91;;;3.27;100.00
9460;BME280;4768;42.664;23.240;2023-04-29T03:50:17;-9502.78;;;3.26;100.00
9460;BME280;4768;42.664;23.240;2023-04-29T03:52:44;-9502.06;;;3.24;100.00
9460;BME280;4768;42.664;23.240;2023-04-29T03:55:11;-9501.34;;;3.21;100.00
9460;BME280;4768;42.664;23.240;2023-04-29T03:57:39;-9500.09;;;3.17;100.00
9460;BME280;4768;42.664;23.240;2023-04-29T04:00:07;-9498.25;;;3.10;100.00
9460;BME280;4768;42.664;23.240;2023-04-29T04:02:34;-9497.25;;;3.07;100.00
9460;BME280;4768;42.664;23.240;2023-04-29T04:05:01;-9499.25;;;3.14;100.00
9460;BME280;4768;42.664;23.240;2023-04-29T04:07:27;-9500.22;;;3.17;100.00
9460;BME280;4768;42.664;23.240;2023-04-29T04:09:54;-9504.47;;;3.32;100.00
9460;BME280;4768;42.664;23.240;2023-04-29T04:12:21;-9505.88;;;3.37;100.00
9460;BME280;4768;42.664;23.240;2023-04-29T04:14:49;-9507.84;;;3.44;100.00
9460;BME280;4768;42.664;23.240;2023-04-29T04:17:17;-9511.09;;;3.55;100.00
9460;BME280;4768;42.664;23.240;2023-04-29T04:19:43;-9513.50;;;3.64;100.00
9460;BME280;4768;42.664;23.240;2023-04-29T04:22:10;-9516.88;;;3.76;100.00
9460;BME280;4768;42.664;23.240;2023-04-29T04:24:37;-9520.28;;;3.87;100.00
9460;BME280;4768;42.664;23.240;2023-04-29T04:27:04;-9523.38;;;3.98;100.00
9460;BME280;4768;42.664;23.240;2023-04-29T04:29:31;-9524.94;;;4.04;100.00
9460;BME280;4768;42.664;23.240;2023-04-29T04:31:59;-9526.91;;;4.11;100.00
9460;BME280;4768;42.664;23.240;2023-04-29T04:34:26;-9524.94;;;4.04;100.00
9460;BME280;4768;42.664;23.240;2023-04-29T04:36:53;-9527.06;;;4.11;100.00
9460;BME280;4768;42.664;23.240;2023-04-29T04:39:20;-9527.06;;;4.11;100.00
9460;BME280;4768;42.664;23.240;2023-04-29T04:41:47;-9530.31;;;4.23;100.00
9460;BME280;4768;42.664;23.240;2023-04-29T04:44:13;-9534.84;;;4.38;100.00
9460;BME280;4768;42.664;23.240;2023-04-29T04:46:40;-9536.81;;;4.45;100.00
9460;BME280;4768;42.664;23.240;2023-04-29T04:49:09;-9539.34;;;4.54;100.00
9460;BME280;4768;42.664;23.240;2023-04-29T04:51:36;-9544.44;;;4.72;100.00
9460;BME280;4768;42.664;23.240;2023-04-29T04:54:02;-9547.84;;;4.84;100.00
9460;BME280;4768;42.664;23.240;2023-04-29T04:56:29;-9551.94;;;4.98;100.00
9460;BME280;4768;42.664;23.240;2023-04-29T04:58:56;-9555.19;;;5.10;100.00
9460;BME280;4768;42.664;23.240;2023-04-29T05:01:22;-9556.31;;;5.14;100.00
9460;BME280;4768;42.664;23.240;2023-04-29T05:03:49;-9559.44;;;5.25;100.00
9460;BME280;4768;42.664;23.240;2023-04-29T05:06:17;-9555.31;;;5.10;100.00
9460;BME280;4768;42.664;23.240;2023-04-29T05:08:44;-9554.63;;;5.08;100.00
9460;BME280;4768;42.664;23.240;2023-04-29T05:11:15;-9554.34;;;5.07;100.00
9460;BME280;4768;42.664;23.240;2023-04-29T05:13:43;-9557.44;;;5.18;100.00
9460;BME280;4768;42.664;23.240;2023-04-29T05:16:09;-9554.75;;;5.08;100.00
9460;BME280;4768;42.664;23.240;2023-04-29T05:18:36;-9559.00;;;5.23;100.00
9460;BME280;4768;42.664;23.240;2023-04-29T05:21:03;-9559.00;;;5.23;100.00
9460;BME280;4768;42.664;23.240;2023-04-29T05:23:31;-9563.25;;;5.38;100.00
9460;BME280;4768;42.664;23.240;2023-04-29T05:25:58;-9567.91;;;5.54;100.00
9460;BME280;4768;42.664;23.240;2023-04-29T05:28:24;-9569.19;;;5.59;100.00
9460;BME280;4768;42.664;23.240;2023-04-29T05:30:51;-9567.75;;;5.54;100.00
9460;BME280;4768;42.664;23.240;2023-04-29T05:33:18;-9573.56;;;5.74;100.00
9460;BME280;4768;42.664;23.240;2023-04-29T05:35:45;-9574.41;;;5.77;100.00
9460;BME280;4768;42.664;23.240;2023-04-29T05:38:12;-9577.38;;;5.87;100.00
9460;BME280;4768;42.664;23.240;2023-04-29T05:40:40;-9576.69;;;5.85;100.00
9460;BME280;4768;42.664;23.240;2023-04-29T05:43:07;-9580.09;;;5.97;100.00
9460;BME280;4768;42.664;23.240;2023-04-29T05:45:34;-9582.06;;;6.04;100.00
9460;BME280;4768;42.664;23.240;2023-04-29T05:48:00;-9582.47;;;6.05;100.00
9460;BME280;4768;42.664;23.240;2023-04-29T05:50:27;-9577.97;;;5.89;100.00
9460;BME280;4768;42.664;23.240;2023-04-29T05:52:54;-9583.19;;;6.08;100.00
9460;BME280;4768;42.664;23.240;2023-04-29T05:55:21;-9592.81;;;6.41;100.00
9460;BME280;4768;42.664;23.240;2023-04-29T05:57:49;-9605.56;;;6.86;100.00
9460;BME280;4768;42.664;23.240;2023-04-29T06:00:16;-9598.91;;;6.63;100.00
9460;BME280;4768;42.664;23.240;2023-04-29T06:02:42;-9596.06;;;6.53;100.00
9460;BME280;4768;42.664;23.240;2023-04-29T06:05:10;-9611.78;;;7.08;100.00
9460;BME280;4768;42.664;23.240;2023-04-29T06:07:37;-9613.19;;;7.13;100.00
9460;BME280;4768;42.664;23.240;2023-04-29T06:10:05;-9619.16;;;7.33;100.00
9460;BME280;4768;42.664;23.240;2023-04-29T06:12:32;-6566.44;;;7.62;100.00
9460;BME280;4768;42.664;23.240;2023-04-29T06:15:00;1260.19;;;7.95;100.00
9460;BME280;4768;42.664;23.240;2023-04-29T06:17:27;9455.81;;;8.17;100.00
9460;BME280;4768;42.664;23.240;2023-04-29T06:19:54;18700.78;;;8.04;100.00
9460;BME280;4768;42.664;23.240;2023-04-29T06:22:21;10481.78;;;8.11;100.00
9460;BME280;4768;42.664;23.240;2023-04-29T06:24:47;22812.19;;;7.80;100.00
9460;BME280;4768;42.664;23.240;2023-04-29T06:27:14;13906.78;;;8.36;100.00
9460;BME280;4768;42.664;23.240;2023-04-29T06:29:41;23169.75;;;8.38;100.00
9460;BME280;4768;42.664;23.240;2023-04-29T06:32:09;38341.03;;;8.80;100.00
9460;BME280;4768;42.664;23.240;2023-04-29T06:34:38;32815.63;;;8.69;100.00
9460;BME280;4768;42.664;23.240;2023-04-29T06:37:04;26951.84;;;8.41;100.00
9460;BME280;4768;42.664;23.240;2023-04-29T06:39:31;14932.25;;;8.15;100.00
9460;BME280;4768;42.664;23.240;2023-04-29T06:41:58;17671.16;;;7.97;100.00
9460;BME280;4768;42.664;23.240;2023-04-29T06:44:26;18009.28;;;7.69;100.00
9460;BME280;4768;42.664;23.240;2023-04-29T06:46:53;12192.25;;;8.06;100.00
9460;BME280;4768;42.664;23.240;2023-04-29T06:49:21;25230.69;;;8.34;100.00
9460;BME280;4768;42.664;23.240;2023-04-29T06:51:48;37672.06;;;9.24;100.00
9460;BME280;4768;42.664;23.240;2023-04-29T06:54:14;64342.41;;;8.80;100.00
9460;BME280;4768;42.664;23.240;2023-04-29T06:56:41;71321.16;;;8.91;100.00
9460;BME280;4768;42.664;23.240;2023-04-29T06:59:08;81058.84;;;8.56;100.00
9460;BME280;4768;42.664;23.240;2023-04-29T07:01:36;74477.94;;;9.06;100.00
9460;BME280;4768;42.664;23.240;2023-04-29T07:04:04;86367.25;;;9.03;100.00
9460;BME280;4768;42.664;23.240;2023-04-29T07:06:32;93342.34;;;8.75;100.00
9460;BME280;4768;42.664;23.240;2023-04-29T07:08:59;95241.25;;;9.75;100.00
9460;BME280;4768;42.664;23.240;2023-04-29T07:11:26;148445.38;;;9.96;100.00
9460;BME280;4768;42.664;23.240;2023-04-29T07:13:53;169826.91;;;10.88;100.00
9460;BME280;4768;42.664;23.240;2023-04-29T07:16:19;169540.38;;;9.82;100.00
9460;BME280;4768;42.664;23.240;2023-04-29T07:18:46;169881.56;;;11.08;100.00
9460;BME280;4768;42.664;23.240;2023-04-29T07:21:13;170000.28;;;11.53;100.00
9460;BME280;4768;42.664;23.240;2023-04-29T07:23:41;170029.59;;;11.63;100.00
9460;BME280;4768;42.664;23.240;2023-04-29T07:26:09;169976.22;;;11.44;100.00
9460;BME280;4768;42.664;23.240;2023-04-29T07:28:36;170089.59;;;11.86;100.00
9460;BME280;4768;42.664;23.240;2023-04-29T07:31:03;169816.28;;;10.84;100.00
9460;BME280;4768;42.664;23.240;2023-04-29T07:33:29;170030.97;;;11.64;100.00
9460;BME280;4768;42.664;23.240;2023-04-29T07:35:57;169764.25;;;10.65;100.00
9460;BME280;4768;42.664;23.240;2023-04-29T07:38:24;169754.94;;;10.61;100.00
9460;BME280;4768;42.664;23.240;2023-04-29T07:40:52;169709.66;;;10.45;100.00
9460;BME280;4768;42.664;23.240;2023-04-29T07:43:19;169772.25;;;10.68;100.00
9460;BME280;4768;42.664;23.240;2023-04-29T07:45:46;169717.66;;;10.48;100.00
9460;BME280;4768;42.664;23.240;2023-04-29T07:48:13;169872.25;;;11.05;100.00
9460;BME280;4768;42.664;23.240;2023-04-29T07:50:40;169909.56;;;11.19;100.00
9460;BME280;4768;42.664;23.240;2023-04-29T07:53:06;169865.56;;;11.03;100.00
9460;BME280;4768;42.664;23.240;2023-04-29T07:55:36;170065.59;;;11.77;100.00
9460;BME280;4768;42.664;23.240;2023-04-29T07:58:04;169810.91;;;10.82;100.00
9460;BME280;4768;42.664;23.240;2023-04-29T08:00:30;169849.56;;;10.97;100.00
9460;BME280;4768;42.664;23.240;2023-04-29T08:02:57;169842.91;;;10.94;100.00
9460;BME280;4768;42.664;23.240;2023-04-29T08:05:24;169993.59;;;11.50;100.00
9460;BME280;4768;42.664;23.240;2023-04-29T08:07:51;169978.91;;;11.45;100.00
9460;BME280;4768;42.664;23.240;2023-04-29T08:10:18;170221.72;;;12.35;100.00
9460;BME280;4768;42.664;23.240;2023-04-29T08:12:47;170139.00;;;12.04;100.00
9460;BME280;4768;42.664;23.240;2023-04-29T08:15:15;170155.00;;;12.10;100.00
9460;BME280;4768;42.664;23.240;2023-04-29T08:17:42;170066.97;;;11.77;100.00
9460;BME280;4768;42.664;23.240;2023-04-29T08:20:10;170176.31;;;12.18;100.00
9460;BME280;4768;42.664;23.240;2023-04-29T08:22:37;170275.06;;;12.54;100.00
9460;BME280;4768;42.664;23.240;2023-04-29T08:25:04;170276.38;;;12.55;100.00
9460;BME280;4768;42.664;23.240;2023-04-29T08:27:31;170329.78;;;12.75;100.00
9460;BME280;4768;42.664;23.240;2023-04-29T08:29:58;170331.09;;;12.75;100.00
9460;BME280;4768;42.664;23.240;2023-04-29T08:32:26;170376.56;;;12.92;100.00
9460;BME280;4768;42.664;23.240;2023-04-29T08:34:53;170340.47;;;12.79;100.00
9460;BME280;4768;42.664;23.240;2023-04-29T08:37:20;170195.00;;;12.25;100.00
9460;BME280;4768;42.664;23.240;2023-04-29T08:39:46;170223.03;;;12.35;100.00
9460;BME280;4768;42.664;23.240;2023-04-29T08:42:13;170313.78;;;12.69;100.00
9460;BME280;4768;42.664;23.240;2023-04-29T08:44:40;170409.91;;;13.04;100.00
9460;BME280;4768;42.664;23.240;2023-04-29T08:47:07;170273.75;;;12.54;100.00
9460;BME280;4768;42.664;23.240;2023-04-29T08:49:36;170085.59;;;11.84;100.00
9460;BME280;4768;42.664;23.240;2023-04-29T08:52:03;170236.34;;;12.40;100.00
9460;BME280;4768;42.664;23.240;2023-04-29T08:54:30;170307.09;;;12.66;100.00
9460;BME280;4768;42.664;23.240;2023-04-29T08:56:57;170343.13;;;12.80;100.00
9460;BME280;4768;42.664;23.240;2023-04-29T08:59:28;170341.78;;;12.79;100.00
9460;BME280;4768;42.664;23.240;2023-04-29T09:01:56;170482.00;;;13.31;100.00
9460;BME280;4768;42.664;23.240;2023-04-29T09:04:31;170643.56;;;13.91;100.00
9460;BME280;4768;42.664;23.240;2023-04-29T09:07:04;170580.81;;;13.68;100.00
9460;BME280;4768;42.664;23.240;2023-04-29T09:09:31;170559.44;;;13.60;100.00
9460;BME280;4768;42.664;23.240;2023-04-29T09:11:58;170471.28;;;13.27;100.00
9460;BME280;4768;42.664;23.240;2023-04-29T09:14:25;170551.44;;;13.57;100.00
9460;BME280;4768;42.664;23.240;2023-04-29T09:16:52;170555.44;;;13.58;100.00
9460;BME280;4768;42.664;23.240;2023-04-29T09:19:29;170492.69;;;13.35;100.00
9460;BME280;4768;42.664;23.240;2023-04-29T09:21:56;170364.56;;;12.88;100.00
9460;BME280;4768;42.664;23.240;2023-04-29T09:24:26;170498.00;;;13.37;100.00
9460;BME280;4768;42.664;23.240;2023-04-29T09:26:54;170473.97;;;13.28;100.00
9460;BME280;4768;42.664;23.240;2023-04-29T09:29:21;170479.34;;;13.30;100.00
9460;BME280;4768;42.664;23.240;2023-04-29T09:31:48;170570.09;;;13.64;100.00
9460;BME280;4768;42.664;23.240;2023-04-29T09:34:15;170570.09;;;13.64;100.00
9460;BME280;4768;42.664;23.240;2023-04-29T09:36:44;170594.13;;;13.73;100.00
9460;BME280;4768;42.664;23.240;2023-04-29T09:39:12;170711.75;;;14.16;100.00
9460;BME280;4768;42.664;23.240;2023-04-29T09:41:55;170662.28;;;13.98;100.00
9460;BME280;4768;42.664;23.240;2023-04-29T09:44:24;170571.47;;;13.64;100.00
9460;BME280;4768;42.664;23.240;2023-04-29T09:46:54;170530.03;;;13.49;100.00
9460;BME280;4768;42.664;23.240;2023-04-29T09:49:22;170465.97;;;13.25;100.00
9460;BME280;4768;42.664;23.240;2023-04-29T09:51:54;170551.44;;;13.57;100.00
9460;BME280;4768;42.664;23.240;2023-04-29T09:54:22;170710.44;;;14.16;100.00
9460;BME280;4768;42.664;23.240;2023-04-29T09:56:52;170758.50;;;14.34;100.00
9460;BME280;4768;42.664;23.240;2023-04-29T09:59:19;170632.88;;;13.87;100.00
9460;BME280;4768;42.664;23.240;2023-04-29T10:01:47;170749.13;;;14.30;100.00
9460;BME280;4768;42.664;23.240;2023-04-29T10:04:15;170695.72;;;14.10;100.00
9460;BME280;4768;42.664;23.240;2023-04-29T10:06:43;170735.78;;;14.25;100.00
9460;BME280;4768;42.664;23.240;2023-04-29T10:09:12;170719.75;;;14.19;100.00
9460;BME280;4768;42.664;23.240;2023-04-29T10:11:41;170652.91;;;13.95;100.00
9460;BME280;4768;42.664;23.240;2023-04-29T10:14:12;170761.16;;;14.35;100.00
9460;BME280;4768;42.664;23.240;2023-04-29T10:16:45;170735.78;;;14.25;100.00
9460;BME280;4768;42.664;23.240;2023-04-29T10:19:18;170714.44;;;14.17;100.00
9460;BME280;4768;42.664;23.240;2023-04-29T10:21:47;170702.41;;;14.13;100.00
9460;BME280;4768;42.664;23.240;2023-04-29T10:24:16;170662.28;;;13.98;100.00
9460;BME280;4768;42.664;23.240;2023-04-29T10:26:43;170706.41;;;14.14;100.00
9460;BME280;4768;42.664;23.240;2023-04-29T10:29:12;170658.28;;;13.97;100.00
9460;BME280;4768;42.664;23.240;2023-04-29T10:31:40;170797.22;;;14.48;100.00
9460;BME280;4768;42.664;23.240;2023-04-29T10:34:08;170690.38;;;14.08;100.00
9460;BME280;4768;42.664;23.240;2023-04-29T10:36:37;170722.44;;;14.20;100.00
9460;BME280;4768;42.664;23.240;2023-04-29T10:39:10;170762.53;;;14.35;100.00
9460;BME280;4768;42.664;23.240;2023-04-29T10:41:43;170834.66;;;14.62;100.00
9460;BME280;4768;42.664;23.240;2023-04-29T10:44:12;170968.25;;;15.11;100.00
9460;BME280;4768;42.664;23.240;2023-04-29T10:46:40;171032.53;;;15.35;100.00
9460;BME280;4768;42.664;23.240;2023-04-29T10:49:09;171092.69;;;15.57;100.00
9460;BME280;4768;42.664;23.240;2023-04-29T10:51:40;170882.75;;;14.80;100.00
9460;BME280;4768;42.664;23.240;2023-04-29T10:54:08;170825.31;;;14.58;100.00
9460;BME280;4768;42.664;23.240;2023-04-29T10:56:40;170801.22;;;14.49;99.83
9460;BME280;4768;42.664;23.240;2023-04-29T10:59:13;170823.94;;;14.58;98.86
9460;BME280;4768;42.664;23.240;2023-04-29T11:01:48;170853.38;;;14.69;96.28
9460;BME280;4768;42.664;23.240;2023-04-29T11:04:16;171008.47;;;15.26;97.22
9460;BME280;4768;42.664;23.240;2023-04-29T11:06:45;171045.88;;;15.40;93.57
9460;BME280;4768;42.664;23.240;2023-04-29T11:09:14;171025.81;;;15.33;95.32
9460;BME280;4768;42.664;23.240;2023-04-29T11:11:58;171107.34;;;15.63;95.25
9460;BME280;4768;42.664;23.240;2023-04-29T11:14:30;170942.88;;;15.02;98.08
9460;BME280;4768;42.664;23.240;2023-04-29T11:16:57;170933.56;;;14.98;98.04
9460;BME280;4768;42.664;23.240;2023-04-29T11:19:29;170882.75;;;14.80;93.46
9460;BME280;4768;42.664;23.240;2023-04-29T11:22:07;170961.63;;;15.09;96.33
9460;BME280;4768;42.664;23.240;2023-04-29T11:24:35;170893.47;;;14.84;91.96
9460;BME280;4768;42.664;23.240;2023-04-29T11:27:02;170839.97;;;14.64;83.86
9460;BME280;4768;42.664;23.240;2023-04-29T11:29:31;170799.91;;;14.49;83.24
9460;BME280;4768;42.664;23.240;2023-04-29T11:31:58;170822.63;;;14.57;80.65
9460;BME280;4768;42.664;23.240;2023-04-29T11:34:25;170819.94;;;14.56;74.03
9460;BME280;4768;42.664;23.240;2023-04-29T11:36:52;170791.88;;;14.46;71.30
9460;BME280;4768;42.664;23.240;2023-04-29T11:39:19;170765.16;;;14.36;70.93
9460;BME280;4768;42.664;23.240;2023-04-29T11:41:46;170775.84;;;14.40;71.57
9460;BME280;4768;42.664;23.240;2023-04-29T11:44:13;170805.22;;;14.51;74.42
9460;BME280;4768;42.664;23.240;2023-04-29T11:46:41;170791.88;;;14.46;75.18
9460;BME280;4768;42.664;23.240;2023-04-29T11:49:07;170794.56;;;14.47;77.46
9460;BME280;4768;42.664;23.240;2023-04-29T11:51:34;170817.25;;;14.55;77.95
9460;BME280;4768;42.664;23.240;2023-04-29T11:54:01;170759.81;;;14.34;75.56
9460;BME280;4768;42.664;23.240;2023-04-29T11:56:28;170742.47;;;14.28;78.27
9460;BME280;4768;42.664;23.240;2023-04-29T11:58:55;170770.53;;;14.38;80.28
9460;BME280;4768;42.664;23.240;2023-04-29T12:01:24;170746.50;;;14.29;79.09
9460;BME280;4768;42.664;23.240;2023-04-29T12:03:56;170759.81;;;14.34;81.14
9460;BME280;4768;42.664;23.240;2023-04-29T12:06:26;170802.59;;;14.50;82.29
9460;BME280;4768;42.664;23.240;2023-04-29T12:08:53;170854.69;;;14.69;84.82
9460;BME280;4768;42.664;23.240;2023-04-29T12:11:21;170822.63;;;14.57;93.84
9460;BME280;4768;42.664;23.240;2023-04-29T12:13:49;170866.72;;;14.74;99.37
9460;BME280;4768;42.664;23.240;2023-04-29T12:16:16;170805.22;;;14.51;92.00
9460;BME280;4768;42.664;23.240;2023-04-29T12:18:43;170880.06;;;14.79;98.81
9460;BME280;4768;42.664;23.240;2023-04-29T12:21:12;170912.13;;;14.91;97.41
9460;BME280;4768;42.664;23.240;2023-04-29T12:23:40;170885.44;;;14.81;90.36
9460;BME280;4768;42.664;23.240;2023-04-29T12:26:06;170866.72;;;14.74;94.32
9460;BME280;4768;42.664;23.240;2023-04-29T12:28:34;170841.34;;;14.64;93.17
9460;BME280;4768;42.664;23.240;2023-04-29T12:31:01;170831.97;;;14.61;91.97
9460;BME280;4768;42.664;23.240;2023-04-29T12:33:29;170770.53;;;14.38;93.28
9460;BME280;4768;42.664;23.240;2023-04-29T12:35:57;170862.72;;;14.72;95.56
9460;BME280;4768;42.664;23.240;2023-04-29T12:38:27;170926.84;;;14.96;96.20
9460;BME280;4768;42.664;23.240;2023-04-29T12:40:55;170974.97;;;15.14;97.96
9460;BME280;4768;42.664;23.240;2023-04-29T12:43:25;171023.13;;;15.32;94.71
9460;BME280;4768;42.664;23.240;2023-04-29T12:45:53;171067.25;;;15.48;92.67
9460;BME280;4768;42.664;23.240;2023-04-29T12:48:21;170985.72;;;15.18;86.41
9460;BME280;4768;42.664;23.240;2023-04-29T12:50:48;170958.94;;;15.08;84.81
9460;BME280;4768;42.664;23.240;2023-04-29T12:53:15;170965.63;;;15.10;84.87
9460;BME280;4768;42.664;23.240;2023-04-29T12:55:44;171003.09;;;15.24;88.64
9460;BME280;4768;42.664;23.240;2023-04-29T12:58:10;171049.88;;;15.42;87.02
9460;BME280;4768;42.664;23.240;2023-04-29T13:00:37;170999.06;;;15.23;84.80
9460;BME280;4768;42.664;23.240;2023-04-29T13:03:04;171065.91;;;15.48;88.79
9460;BME280;4768;42.664;23.240;2023-04-29T13:05:31;171119.38;;;15.67;88.22